EDT,Max TemperatureF,Mean TemperatureF,Min TemperatureF,Max Dew PointF,MeanDew PointF,Min DewpointF,Max Humidity, Mean Humidity, Min Humidity, Max Sea Level PressureIn, Mean Sea Level PressureIn, Min Sea Level PressureIn, Max VisibilityMiles, Mean VisibilityMiles, Min VisibilityMiles, Max Wind SpeedMPH, Mean Wind SpeedMPH, Max Gust SpeedMPH,PrecipitationIn, CloudCover, Events, WindDirDegrees
2012-10-1,63,57,51,55,51,48,96,81,65,29.89,29.67,29.53,10,10,10,8,3,90,0.15,8,Rain,213
2012-10-2,63,57,51,58,54,50,100,88,75,30.04,29.97,29.90,10,10,9,12,2,,0.01,5,Rain,159
2012-10-3,63,58,53,61,58,52,100,95,90,30.12,30.07,30.03,10,5,0,5,1,29,0.07,8,Fog-Rain,348
2012-10-4,67,59,50,64,59,50,100,89,78,30.12,30.05,29.98,10,5,0,6,1,22,0.10,5,Fog-Rain-Thunderstorm,142
2012-10-5,73,61,49,60,53,49,100,79,57,29.98,29.94,29.83,10,5,0,20,5,23,0.01,2,Fog,167
2012-10-6,65,56,46,54,47,36,100,78,56,29.91,29.77,29.70,10,9,2,17,6,26,0.48,7,Rain,359
2012-10-7,53,47,41,41,39,34,93,74,54,30.08,30.03,29.95,10,10,10,10,3,13,0.04,5,Rain,356
2012-10-8,55,46,36,42,39,35,96,73,50,30.28,30.20,30.09,10,10,10,13,2,21,T,4,Rain,156
2012-10-9,58,45,31,45,40,30,100,79,57,30.29,30.20,30.06,10,10,10,22,6,29,0.00,2,,160
2012-10-10,58,49,39,52,45,37,100,81,61,30.06,29.85,29.68,10,10,10,23,8,32,T,7,,171
2012-10-11,56,48,40,37,32,24,76,54,32,30.05,29.97,29.81,10,10,10,14,5,22,T,5,,242
2012-10-12,51,41,30,42,28,22,83,62,40,30.41,30.18,29.91,10,10,10,23,8,32,0.04,4,Rain,296
2012-10-13,53,40,26,35,26,22,86,58,30,30.44,30.37,30.20,10,10,10,15,4,18,0.08,3,Rain,201
2012-10-14,53,47,40,50,44,38,100,92,83,30.14,29.93,29.73,10,9,2,16,3,22,0.18,6,Rain,180
2012-10-15,68,59,50,56,50,43,96,77,57,29.71,29.60,29.54,10,10,10,20,7,28,0.01,3,Rain,181
2012-10-16,53,41,29,42,34,29,96,73,50,29.90,29.77,29.61,10,10,10,15,5,23,0.01,5,Rain,296
2012-10-17,56,42,28,42,35,27,100,72,43,29.98,29.94,29.91,10,10,10,14,4,17,0.00,4,,143
2012-10-18,67,53,39,46,42,37,100,67,34,29.98,29.95,29.90,10,10,10,22,9,28,0.00,0,,155
2012-10-19,58,56,53,56,53,44,100,81,62,29.96,29.83,29.68,10,7,1,22,4,40,1.03,7,Rain,146
2012-10-20,66,55,43,57,53,42,100,84,67,29.70,29.63,29.57,10,4,0,8,2,,0.76,6,Fog-Rain-Thunderstorm,147
2012-10-21,56,50,43,44,42,39,92,76,59,29.90,29.81,29.72,10,10,10,16,5,30,0.01,7,Rain,258
2012-10-22,61,51,41,42,40,38,89,68,46,30.05,29.97,29.91,10,10,10,18,5,28,0.00,1,,293
2012-10-23,53,44,34,41,39,34,100,82,63,30.17,30.13,30.06,10,10,10,9,3,13,0.00,1,,21
2012-10-24,54,43,32,37,33,30,100,71,41,30.25,30.20,30.15,10,10,7,10,3,13,T,2,,355
2012-10-25,62,49,35,52,43,34,92,76,60,30.22,30.18,30.12,10,10,10,16,6,21,0.00,5,,156
2012-10-26,62,54,45,53,50,45,100,86,72,30.14,30.10,30.06,10,9,6,20,6,24,0.00,0,,158
2012-10-27,64,54,43,54,50,43,100,84,67,30.10,30.03,29.96,10,8,4,6,0,7,0.00,4,,150
2012-10-28,55,51,47,52,48,44,100,86,71,30.04,29.97,29.88,10,8,3,15,6,18,0.00,4,,14
2012-10-29,65,56,47,52,47,44,86,77,67,29.88,29.68,29.33,10,10,10,28,16,38,0.01,6,Rain,6
2012-10-30,68,62,55,56,53,50,93,76,58,29.52,29.46,29.34,10,9,2,23,7,39,0.59,6,Rain,112
2012-10-31,56,50,43,54,47,38,100,82,63,29.49,29.45,29.41,10,7,1,21,5,26,0.01,5,Rain,181